This is the latest recevied weather packets stored in our database for station/object EPGD. If no packets are shown the sender has not sent any weather packets the latest 1 day(s).
| Time | Temp. | Humidity | Pressure | Rain* | Wind** | Luminosity | Snow |
|---|---|---|---|---|---|---|---|
| 1836274077 | 15° C | 93% | 1020 hPa | - | 3.58 m/s, 210° | - | - |
| 1778004303 | 6.67° C | 100% | 1010 hPa | - | 1.34 m/s, 70° | - | - |
| 1778002503 | 7.78° C | 93% | 1010 hPa | - | 2.24 m/s, 30° | - | - |
| 1778000704 | 6.67° C | 100% | 1010 hPa | - | 2.68 m/s, 40° | - | - |
| 1777998903 | 7.78° C | 93% | 1010 hPa | - | 3.13 m/s, 50° | - | - |
| 1777997104 | 7.78° C | 93% | 1010 hPa | - | 2.68 m/s, 60° | - | - |
| 1777995303 | 8.89° C | 93% | 1010 hPa | - | 2.68 m/s, 50° | - | - |
| 1777993504 | 8.89° C | 87% | 1010 hPa | - | 2.24 m/s, 80° | - | - |
| 1777991704 | 8.89° C | 87% | 1010 hPa | - | 2.24 m/s, 80° | - | - |
| 1777989903 | 8.89° C | 87% | 1010 hPa | - | 3.13 m/s, 30° | - | - |
| 1777988103 | 10° C | 76% | 1011 hPa | - | 2.68 m/s, 30° | - | - |
| 1777986304 | 10° C | 76% | 1011 hPa | - | 2.68 m/s, 40° | - | - |
| 1777984503 | 10° C | 76% | 1011 hPa | - | 2.68 m/s, 60° | - | - |
| 1777982704 | 10° C | 76% | 1011 hPa | - | 3.58 m/s, 50° | - | - |
| 1777980904 | 11.67° C | 54% | 1010 hPa | - | 4.02 m/s, 20° | - | - |
| 1777979104 | 12.78° C | 47% | 1010 hPa | - | 5.36 m/s, 50° | - | - |
| 1777977304 | 13.89° C | 41% | 1010 hPa | - | 5.36 m/s, 50° | - | - |
| 1777975504 | 15.56° C | 41% | 1010 hPa | - | 4.02 m/s, 50° | - | - |
| 1777973704 | 16.67° C | 41% | 1010 hPa | - | 1.34 m/s, 20° | - | - |
| 1777971904 | 15.56° C | 41% | 1010 hPa | - | 0 m/s | - | - |
| 1777970103 | 15° C | 41% | 1011 hPa | - | 0 m/s | - | - |
| 1777968304 | 15° C | 41% | 1011 hPa | - | 0 m/s | - | - |
| 1777966503 | 13.89° C | 38% | 1011 hPa | - | 0 m/s | - | - |
| 1777964704 | 13.89° C | 44% | 1011 hPa | - | 0 m/s | - | - |
| 1777962903 | 11.67° C | 57% | 1011 hPa | - | 0 m/s | - | - |
* Rain since midnight (hover to see other rain measurements)
** Current wind speed in m/s (hover to see current wind gust speed)